createdAt,value
2019-05-15T00:00:49.726Z,12.04
2019-05-15T00:03:39.360Z,12.01
2019-05-15T00:06:29.084Z,11.97
2019-05-15T00:09:19.363Z,11.94
2019-05-15T00:12:10.075Z,11.89
2019-05-15T00:15:02.812Z,11.85
2019-05-15T00:17:54.657Z,11.81
2019-05-15T00:20:45.488Z,11.77
2019-05-15T00:23:41.172Z,11.74
2019-05-15T00:26:31.358Z,11.71
2019-05-15T00:29:21.927Z,11.68
2019-05-15T00:32:12.116Z,11.64
2019-05-15T00:35:02.273Z,11.60
2019-05-15T00:37:58.528Z,11.55
2019-05-15T00:40:49.546Z,11.52
2019-05-15T00:43:39.574Z,11.49
2019-05-15T00:46:30.211Z,11.45
2019-05-15T00:49:20.724Z,11.42
2019-05-15T00:52:12.302Z,11.38
2019-05-15T00:55:08.660Z,11.34
2019-05-15T00:57:59.059Z,11.30
2019-05-15T01:00:49.139Z,11.26
2019-05-15T01:03:38.940Z,11.22
2019-05-15T01:06:29.741Z,11.19
2019-05-15T01:09:19.408Z,11.14
2019-05-15T01:12:09.181Z,11.11
2019-05-15T01:14:58.664Z,11.07
2019-05-15T01:17:49.337Z,11.05
2019-05-15T01:20:39.483Z,11.00
2019-05-15T01:23:28.671Z,10.97
2019-05-15T01:26:18.815Z,10.94
2019-05-15T01:29:09.208Z,10.91
2019-05-15T01:31:59.417Z,10.85
2019-05-15T01:34:49.199Z,10.82
2019-05-15T01:37:40.333Z,10.80
2019-05-15T01:40:30.249Z,10.76
2019-05-15T01:43:19.752Z,10.74
2019-05-15T01:46:09.474Z,10.71
2019-05-15T01:48:59.365Z,10.68
2019-05-15T01:51:48.601Z,10.64
2019-05-15T01:54:39.111Z,10.61
2019-05-15T01:57:29.343Z,10.58
2019-05-15T02:00:19.168Z,10.56
2019-05-15T02:03:10.075Z,10.53
2019-05-15T02:05:59.687Z,10.48
2019-05-15T02:08:49.941Z,10.47
2019-05-15T02:11:39.798Z,10.44
2019-05-15T02:14:29.874Z,10.42
2019-05-15T02:17:19.192Z,10.39
2019-05-15T02:20:08.823Z,10.35
2019-05-15T02:22:59.086Z,10.34
2019-05-15T02:25:48.970Z,10.31
2019-05-15T02:28:39.369Z,10.26
2019-05-15T02:31:30.248Z,10.25
2019-05-15T02:34:19.975Z,10.23
2019-05-15T02:37:09.812Z,10.21
2019-05-15T02:39:59.255Z,10.17
2019-05-15T02:42:51.535Z,10.12
2019-05-15T02:45:42.396Z,10.10
2019-05-15T02:48:32.055Z,10.07
2019-05-15T02:51:22.039Z,10.05
2019-05-15T02:54:11.671Z,10.01
2019-05-15T02:57:01.293Z,9.97
2019-05-15T02:59:53.023Z,9.96
2019-05-15T03:02:42.625Z,9.92
2019-05-15T03:05:34.170Z,9.89
2019-05-15T03:08:24.137Z,9.87
2019-05-15T03:11:13.807Z,9.83
2019-05-15T03:14:04.042Z,9.81
2019-05-15T03:16:53.673Z,9.78
2019-05-15T03:19:44.431Z,9.77
2019-05-15T03:22:35.008Z,9.73
2019-05-15T03:25:29.654Z,9.69
2019-05-15T03:28:19.253Z,9.66
2019-05-15T03:31:31.147Z,9.65
2019-05-15T03:34:03.084Z,9.62
2019-05-15T03:36:53.290Z,9.60
2019-05-15T03:39:46.991Z,9.57
2019-05-15T03:42:35.287Z,9.56
2019-05-15T03:45:25.618Z,9.53
2019-05-15T03:48:19.637Z,9.49
2019-05-15T03:51:10.816Z,9.48
2019-05-15T03:54:00.705Z,9.46
2019-05-15T03:56:51.925Z,9.41
2019-05-15T03:59:42.112Z,9.40
2019-05-15T04:02:31.597Z,9.38
2019-05-15T04:05:21.947Z,9.36
2019-05-15T04:08:11.832Z,9.34
2019-05-15T04:11:01.633Z,9.31
2019-05-15T04:13:51.915Z,9.30
2019-05-15T04:16:42.853Z,9.28
2019-05-15T04:19:33.449Z,9.26
2019-05-15T04:22:23.454Z,9.24
2019-05-15T04:25:18.893Z,9.23
2019-05-15T04:28:09.703Z,9.22
2019-05-15T04:30:59.928Z,9.20
2019-05-15T04:33:49.445Z,9.18
2019-05-15T04:36:44.297Z,9.17
2019-05-15T04:39:31.493Z,9.17
2019-05-15T04:42:21.072Z,9.15
2019-05-15T04:45:12.903Z,9.15
2019-05-15T04:48:02.754Z,9.14
2019-05-15T04:50:51.843Z,9.12
2019-05-15T04:53:41.837Z,9.14
2019-05-15T04:56:31.783Z,9.13
2019-05-15T04:59:22.121Z,9.12
2019-05-15T05:02:16.894Z,9.12
2019-05-15T05:05:05.784Z,9.12
2019-05-15T05:07:59.531Z,9.13
2019-05-15T05:10:48.835Z,9.16
2019-05-15T05:13:39.300Z,9.16
2019-05-15T05:16:30.307Z,9.21
2019-05-15T05:19:20.188Z,9.24
2019-05-15T05:22:13.638Z,9.26
2019-05-15T05:25:04.088Z,9.30
2019-05-15T05:27:52.747Z,9.35
2019-05-15T05:30:42.531Z,9.40
2019-05-15T05:33:32.791Z,9.45
2019-05-15T05:36:22.013Z,9.54
2019-05-15T05:39:15.327Z,9.62
2019-05-15T05:42:02.653Z,9.70
2019-05-15T05:44:51.894Z,9.77
2019-05-15T05:47:40.803Z,9.85
2019-05-15T05:50:44.118Z,9.97
2019-05-15T05:53:33.866Z,10.06
2019-05-15T05:56:24.310Z,10.17
2019-05-15T05:59:14.669Z,10.27
2019-05-15T06:02:04.390Z,10.38
2019-05-15T06:04:55.487Z,10.47
2019-05-15T06:07:48.680Z,10.59
2019-05-15T06:10:38.548Z,10.69
2019-05-15T06:13:29.283Z,10.79
2019-05-15T06:16:19.234Z,10.92
2019-05-15T06:19:08.472Z,11.04
2019-05-15T06:22:01.091Z,11.15
2019-05-15T06:24:50.868Z,11.27
2019-05-15T06:27:41.151Z,11.39
2019-05-15T06:30:31.468Z,11.51
2019-05-15T06:33:21.524Z,11.64
2019-05-15T06:36:11.101Z,11.76
2019-05-15T06:39:00.540Z,11.89
2019-05-15T06:41:49.865Z,12.02
2019-05-15T06:44:39.263Z,12.17
2019-05-15T06:47:28.483Z,12.29
2019-05-15T06:50:40.539Z,12.43
2019-05-15T06:53:30.426Z,12.56
2019-05-15T06:56:19.688Z,12.72
2019-05-15T06:59:09.104Z,12.85
2019-05-15T07:01:59.338Z,13.01
2019-05-15T07:04:49.069Z,13.16
2019-05-15T07:07:38.983Z,13.32
2019-05-15T07:10:30.018Z,13.47
2019-05-15T07:13:19.069Z,13.62
2019-05-15T07:16:08.913Z,13.77
2019-05-15T07:18:58.860Z,13.94
2019-05-15T07:21:49.649Z,14.11
2019-05-15T07:24:41.730Z,14.26
2019-05-15T07:27:31.638Z,14.41
2019-05-15T07:30:21.797Z,14.56
2019-05-15T07:33:10.996Z,14.72
2019-05-15T07:36:00.783Z,14.86
2019-05-15T07:38:50.520Z,14.99
2019-05-15T07:41:42.440Z,15.15
2019-05-15T07:44:33.091Z,15.29
2019-05-15T07:47:23.019Z,15.44
2019-05-15T07:50:14.135Z,15.57
2019-05-15T07:53:04.223Z,15.73
2019-05-15T07:55:54.417Z,15.89
2019-05-15T07:58:44.564Z,16.02
2019-05-15T08:01:33.790Z,16.17
2019-05-15T08:04:29.474Z,16.29
2019-05-15T08:07:18.512Z,16.46
2019-05-15T08:10:09.699Z,16.63
2019-05-15T08:13:00.415Z,16.81
2019-05-15T08:15:49.917Z,16.99
2019-05-15T08:18:40.436Z,17.17
2019-05-15T08:21:30.727Z,17.32
2019-05-15T08:24:21.090Z,17.46
2019-05-15T08:27:11.228Z,17.57
2019-05-15T08:30:01.334Z,17.71
2019-05-15T08:32:51.620Z,17.84
2019-05-15T08:35:44.625Z,18.00
2019-05-15T08:38:33.200Z,18.13
2019-05-15T08:41:22.927Z,18.27
2019-05-15T08:44:13.174Z,18.44
2019-05-15T08:47:02.836Z,18.55
2019-05-15T08:49:52.702Z,18.66
2019-05-15T08:52:43.394Z,18.80
2019-05-15T08:55:33.272Z,18.94
2019-05-15T08:58:24.760Z,19.09
2019-05-15T09:01:13.974Z,19.23
2019-05-15T09:04:03.356Z,19.37
2019-05-15T09:06:53.403Z,19.45
2019-05-15T09:09:43.002Z,19.60
2019-05-15T09:12:32.363Z,19.73
2019-05-15T09:15:22.080Z,19.94
2019-05-15T09:18:16.295Z,20.04
2019-05-15T09:21:04.538Z,20.16
2019-05-15T09:23:58.986Z,20.27
2019-05-15T09:26:48.998Z,20.38
2019-05-15T09:29:38.575Z,20.51
2019-05-15T09:32:28.573Z,20.67
2019-05-15T09:35:20.848Z,20.75
2019-05-15T09:38:10.380Z,20.86
2019-05-15T09:41:00.275Z,21.00
2019-05-15T09:43:49.767Z,21.13
2019-05-15T09:46:39.429Z,21.28
2019-05-15T09:49:30.519Z,21.46
2019-05-15T09:52:22.978Z,21.58
2019-05-15T09:55:11.265Z,21.69
2019-05-15T09:58:00.302Z,21.86
2019-05-15T10:00:51.933Z,22.03
2019-05-15T10:03:44.305Z,22.14
2019-05-15T10:06:31.586Z,22.25
2019-05-15T10:09:21.136Z,22.32
2019-05-15T10:12:10.682Z,22.46
2019-05-15T10:15:00.031Z,22.56
2019-05-15T10:17:51.192Z,22.77
2019-05-15T10:20:40.002Z,22.83
2019-05-15T10:23:29.382Z,22.99
2019-05-15T10:26:19.423Z,23.15
2019-05-15T10:29:09.127Z,23.30
2019-05-15T10:31:59.211Z,23.52
2019-05-15T10:34:47.835Z,23.70
2019-05-15T10:37:39.017Z,23.84
2019-05-15T10:40:29.594Z,23.80
2019-05-15T10:43:20.564Z,23.96
2019-05-15T10:46:13.553Z,24.03
2019-05-15T10:49:00.814Z,24.17
2019-05-15T10:51:49.591Z,24.30
2019-05-15T10:54:38.387Z,24.31
2019-05-15T10:57:28.174Z,24.39
2019-05-15T11:00:19.511Z,24.58
2019-05-15T11:03:09.014Z,24.71
2019-05-15T11:05:58.806Z,24.84
2019-05-15T11:08:51.076Z,24.96
2019-05-15T11:11:38.538Z,25.01
2019-05-15T11:14:28.619Z,25.16
2019-05-15T11:17:18.536Z,25.27
2019-05-15T11:20:08.483Z,25.34
2019-05-15T11:22:59.086Z,25.45
2019-05-15T11:25:48.855Z,25.61
2019-05-15T11:28:39.282Z,25.63
2019-05-15T11:31:29.039Z,25.73
2019-05-15T11:34:20.787Z,25.84
2019-05-15T11:37:10.128Z,25.89
2019-05-15T11:39:59.778Z,25.93
2019-05-15T11:42:48.898Z,25.98
2019-05-15T11:45:39.208Z,26.10
2019-05-15T11:48:30.032Z,26.22
2019-05-15T11:51:20.108Z,26.25
2019-05-15T11:54:08.879Z,26.29
2019-05-15T11:56:59.664Z,26.35
2019-05-15T11:59:55.245Z,26.35
2019-05-15T12:02:41.505Z,26.39
2019-05-15T12:05:30.565Z,26.48
2019-05-15T12:08:20.332Z,26.57
2019-05-15T12:11:11.876Z,26.64
2019-05-15T12:14:00.889Z,26.73
2019-05-15T12:17:05.572Z,26.81
2019-05-15T12:19:43.182Z,26.88
2019-05-15T12:22:32.058Z,26.93
2019-05-15T12:25:29.317Z,26.99
2019-05-15T12:28:16.528Z,27.08
2019-05-15T12:31:05.511Z,27.14
2019-05-15T12:33:54.787Z,26.70
2019-05-15T12:36:56.779Z,26.95
2019-05-15T12:39:35.023Z,27.09
2019-05-15T13:02:28.044Z,27.62
2019-05-15T13:05:19.240Z,27.63
2019-05-15T13:08:09.012Z,27.62
2019-05-15T13:10:58.892Z,27.64
2019-05-15T13:13:48.632Z,27.63
2019-05-15T13:16:39.035Z,27.65
2019-05-15T13:19:28.617Z,27.65
2019-05-15T13:22:24.466Z,27.68
2019-05-15T13:25:09.393Z,27.68
2019-05-15T13:27:58.183Z,27.68
2019-05-15T13:30:48.951Z,27.66
2019-05-15T13:33:39.700Z,27.67
2019-05-15T13:36:29.431Z,27.67
2019-05-15T13:39:18.596Z,27.68
2019-05-15T13:42:09.335Z,27.67
2019-05-15T13:44:59.215Z,27.70
2019-05-15T13:47:48.346Z,27.72
2019-05-15T13:50:40.415Z,27.73
2019-05-15T13:53:28.165Z,27.75
2019-05-15T13:56:18.270Z,27.71
2019-05-15T13:59:08.138Z,27.68
2019-05-15T14:01:59.379Z,27.70
2019-05-15T14:04:49.044Z,27.71
2019-05-15T14:07:48.988Z,27.64
2019-05-15T14:10:32.682Z,27.65
2019-05-15T14:13:22.182Z,27.67
2019-05-15T14:16:11.204Z,27.70
2019-05-15T14:19:00.359Z,27.70
2019-05-15T14:21:49.822Z,27.69
2019-05-15T14:24:39.272Z,27.66
2019-05-15T14:27:28.941Z,27.68
2019-05-15T14:30:19.067Z,27.69
2019-05-15T14:33:08.589Z,27.75
2019-05-15T14:35:58.432Z,27.85
2019-05-15T14:38:48.615Z,27.90
2019-05-15T14:41:38.238Z,27.98
2019-05-15T14:44:27.572Z,28.01
2019-05-15T14:47:19.273Z,28.11
2019-05-15T14:50:09.882Z,28.22
2019-05-15T14:53:00.176Z,28.30
2019-05-15T14:55:49.744Z,28.38
2019-05-15T14:58:38.866Z,28.49
2019-05-15T15:01:28.214Z,28.56
2019-05-15T15:04:18.427Z,28.53
2019-05-15T15:07:08.840Z,28.58
2019-05-15T15:09:58.404Z,28.64
2019-05-15T15:12:49.976Z,28.55
2019-05-15T15:15:38.486Z,28.59
2019-05-15T15:18:28.168Z,28.54
2019-05-15T15:21:22.169Z,28.56
2019-05-15T15:24:08.548Z,28.50
2019-05-15T15:26:58.942Z,28.48
2019-05-15T15:29:48.553Z,28.49
2019-05-15T15:32:37.790Z,28.40
2019-05-15T15:35:28.881Z,28.36
2019-05-15T15:38:22.859Z,28.33
2019-05-15T15:41:08.732Z,28.30
2019-05-15T15:43:58.666Z,28.28
2019-05-15T15:46:48.468Z,28.19
2019-05-15T15:49:38.757Z,28.15
2019-05-15T15:52:29.078Z,28.15
2019-05-15T15:55:18.891Z,28.09
2019-05-15T15:58:08.733Z,27.54
2019-05-15T16:00:58.868Z,27.68
2019-05-15T16:03:48.533Z,27.77
2019-05-15T16:06:38.798Z,27.88
2019-05-15T16:09:28.305Z,27.94
2019-05-15T16:12:18.570Z,27.95
2019-05-15T16:15:08.940Z,28.03
2019-05-15T16:17:59.378Z,28.09
2019-05-15T16:20:48.718Z,28.19
2019-05-15T16:23:38.539Z,28.21
2019-05-15T16:26:29.747Z,28.26
2019-05-15T16:29:19.962Z,28.24
2019-05-15T16:32:08.876Z,28.23
2019-05-15T16:35:02.064Z,28.13
2019-05-15T16:37:52.463Z,28.05
2019-05-15T16:40:48.736Z,28.05
2019-05-15T16:43:38.269Z,27.95
2019-05-15T16:46:28.254Z,27.90
2019-05-15T16:49:20.451Z,27.86
2019-05-15T16:52:09.812Z,27.79
2019-05-15T16:55:00.845Z,27.66
2019-05-15T16:57:50.414Z,27.45
2019-05-15T17:00:39.831Z,27.30
2019-05-15T17:03:29.154Z,27.12
2019-05-15T17:06:18.893Z,26.88
2019-05-15T17:09:20.849Z,26.67
2019-05-15T17:12:00.041Z,26.44
2019-05-15T17:14:49.372Z,26.23
2019-05-15T17:17:39.277Z,26.00
2019-05-15T17:20:29.204Z,25.79
2019-05-15T17:23:19.060Z,25.58
2019-05-15T17:26:08.869Z,25.35
2019-05-15T17:28:58.425Z,25.17
2019-05-15T17:31:48.831Z,24.97
2019-05-15T17:34:38.089Z,24.79
2019-05-15T17:37:28.678Z,24.61
2019-05-15T17:40:18.450Z,24.42
2019-05-15T17:43:09.357Z,24.24
2019-05-15T17:45:59.037Z,24.02
2019-05-15T17:48:55.743Z,23.81
2019-05-15T17:51:39.249Z,23.66
2019-05-15T17:54:29.833Z,23.50
2019-05-15T17:57:20.578Z,23.34
2019-05-15T18:00:12.720Z,23.15
2019-05-15T18:03:01.472Z,23.02
2019-05-15T18:05:50.932Z,22.91
2019-05-15T18:08:40.688Z,22.76
2019-05-15T18:11:29.982Z,22.63
2019-05-15T18:14:19.632Z,22.54
2019-05-15T18:17:08.791Z,22.39
2019-05-15T18:19:58.145Z,22.25
2019-05-15T18:22:48.146Z,22.15
2019-05-15T18:25:38.390Z,22.02
2019-05-15T18:28:27.574Z,21.87
2019-05-15T18:31:18.166Z,21.71
2019-05-15T18:34:10.827Z,21.58
2019-05-15T18:37:01.151Z,21.44
2019-05-15T18:40:02.193Z,21.32
2019-05-15T18:42:41.374Z,21.25
2019-05-15T18:45:30.584Z,21.13
2019-05-15T18:48:20.508Z,20.98
2019-05-15T18:51:10.042Z,20.86
2019-05-15T18:54:01.234Z,20.71
2019-05-15T18:56:50.695Z,20.57
2019-05-15T18:59:40.587Z,20.48
2019-05-15T19:02:32.606Z,20.41
2019-05-15T19:05:22.254Z,20.26
2019-05-15T19:08:13.066Z,20.10
2019-05-15T19:11:04.720Z,19.99
2019-05-15T19:13:53.982Z,19.91
2019-05-15T19:16:43.430Z,19.78
2019-05-15T19:19:32.598Z,19.69
2019-05-15T19:22:23.096Z,19.57
2019-05-15T19:25:13.530Z,19.44
2019-05-15T19:28:03.255Z,19.33
2019-05-15T19:30:52.637Z,19.24
2019-05-15T19:33:44.612Z,19.13
2019-05-15T19:36:33.971Z,19.01
2019-05-15T19:39:23.179Z,18.91
2019-05-15T19:42:12.818Z,18.79
2019-05-15T19:45:05.358Z,18.70
2019-05-15T19:47:55.432Z,18.59
2019-05-15T19:50:45.252Z,18.48
2019-05-15T19:53:35.899Z,18.38
2019-05-15T19:56:29.674Z,18.28
2019-05-15T19:59:22.441Z,18.18
2019-05-15T20:02:10.409Z,18.09
2019-05-15T20:05:00.025Z,18.00
2019-05-15T20:07:51.273Z,17.91
2019-05-15T20:10:40.728Z,17.82
2019-05-15T20:13:30.830Z,17.73
2019-05-15T20:16:21.369Z,17.64
2019-05-15T20:19:10.295Z,17.55
2019-05-15T20:22:00.127Z,17.46
2019-05-15T20:24:49.647Z,17.38
2019-05-15T20:27:41.401Z,17.29
2019-05-15T20:30:30.407Z,17.21
2019-05-15T20:33:19.362Z,17.13
2019-05-15T20:36:09.222Z,17.05
2019-05-15T20:39:01.222Z,16.99
2019-05-15T20:41:52.230Z,16.91
2019-05-15T20:44:41.795Z,16.82
2019-05-15T20:47:31.760Z,16.73
2019-05-15T20:50:20.837Z,16.65
2019-05-15T20:53:10.194Z,16.56
2019-05-15T20:55:59.577Z,16.49
2019-05-15T20:58:49.729Z,16.41
2019-05-15T21:01:39.987Z,16.35
2019-05-15T21:04:30.367Z,16.27
2019-05-15T21:07:34.441Z,16.19
2019-05-15T21:10:13.534Z,16.13
2019-05-15T21:13:03.958Z,16.05
2019-05-15T21:15:53.731Z,15.99
2019-05-15T21:18:45.070Z,15.91
2019-05-15T21:21:38.741Z,15.85
2019-05-15T21:24:28.527Z,15.79
2019-05-15T21:27:23.791Z,15.72
2019-05-15T21:30:12.533Z,15.66
2019-05-15T21:33:02.529Z,15.61
2019-05-15T21:35:53.597Z,15.53
2019-05-15T21:38:43.768Z,15.47
2019-05-15T21:41:33.637Z,15.41
2019-05-15T21:44:24.402Z,15.36
2019-05-15T21:47:14.121Z,15.30
2019-05-15T21:50:03.902Z,15.24
2019-05-15T21:52:53.617Z,15.18
2019-05-15T21:55:43.471Z,15.15
2019-05-15T21:58:33.005Z,15.08
2019-05-15T22:01:23.049Z,15.01
2019-05-15T22:04:13.390Z,14.97
2019-05-15T22:07:02.962Z,14.93
2019-05-15T22:09:52.392Z,14.87
2019-05-15T22:12:42.278Z,14.81
2019-05-15T22:15:32.421Z,14.76
2019-05-15T22:18:21.927Z,14.71
2019-05-15T22:21:12.521Z,14.67
2019-05-15T22:24:01.181Z,14.61
2019-05-15T22:26:52.880Z,14.57
2019-05-15T22:29:43.894Z,14.52
2019-05-15T22:32:34.244Z,14.49
2019-05-15T22:35:24.674Z,14.42
2019-05-15T22:38:14.390Z,14.37
2019-05-15T22:41:05.155Z,14.33
2019-05-15T22:43:53.991Z,14.28
2019-05-15T22:46:43.465Z,14.22
2019-05-15T22:49:32.140Z,14.19
2019-05-15T22:52:21.715Z,14.12
2019-05-15T22:55:11.455Z,14.09
2019-05-15T22:58:00.029Z,14.05
2019-05-15T23:00:51.679Z,14.00
2019-05-15T23:03:41.100Z,13.92
2019-05-15T23:06:30.722Z,13.89
2019-05-15T23:09:20.099Z,13.83
2019-05-15T23:12:11.319Z,13.79
2019-05-15T23:14:59.744Z,13.76
2019-05-15T23:17:48.818Z,13.70
2019-05-15T23:20:38.839Z,13.68
2019-05-15T23:23:28.807Z,13.62
2019-05-15T23:26:20.580Z,13.57
2019-05-15T23:29:10.205Z,13.53
2019-05-15T23:31:59.729Z,13.48
2019-05-15T23:34:49.228Z,13.42
2019-05-15T23:37:39.370Z,13.38
2019-05-15T23:40:29.072Z,13.36
2019-05-15T23:43:19.101Z,13.32
2019-05-15T23:46:08.919Z,13.26
2019-05-15T23:48:59.033Z,13.22
2019-05-15T23:51:51.787Z,13.18
2019-05-15T23:54:40.984Z,13.15
2019-05-15T23:57:29.576Z,13.11
